Wisaforest — PBGA — position and weather

sailwx.info

Track history (hours):
 
Tides and Currents Weather Stations Pressure Air Temp Water Temp Dewpoint Dewpoint Depression Visibility Wind Speed Wind Dir Waves Ship Positions

Wisaforest

Last reported at 2017-Sep-19 00:06 UTC. Time now 2017-Sep-24 05:18 UTC.
Position N 39°34' W 009°51'.

Length 120 m; draft 7.4 m.

Type: Cargo ship. MMSI: 245096000.

Date/timePositionNaut miles runAvg speedWind from/ knotsBaromVisibWave heightAir tempDewpointWater temp
2017-Sep-19 00:06N 39°34' W 009°51'211.6
2017-Sep-18 23:54N 39°32' W 009°52'611.3
2017-Sep-18 23:21N 39°26' W 009°52'411.1
2017-Sep-18 22:59N 39°22' W 009°52'4 9.5
2017-Sep-18 22:30N 39°17' W 009°51'5 9.8
2017-Sep-18 22:00N 39°12' W 009°51'5 9.4
2017-Sep-18 21:30N 39°08' W 009°51'510.9
2017-Sep-18 21:00N 39°02' W 009°52'611.6
2017-Sep-18 20:30N 38°56' W 009°52'611.2
2017-Sep-18 20:00N 38°51' W 009°52'611.2
2017-Sep-18 19:30N 38°45' W 009°52'611.2
2017-Sep-18 19:00N 38°40' W 009°50'510.9
2017-Sep-18 18:30N 38°34' W 009°49'510.9
2017-Sep-18 18:00N 38°29' W 009°47'611.4
2017-Sep-18 17:30N 38°23' W 009°46'611.3
2017-Sep-18 17:00N 38°18' W 009°44'611.7
2017-Sep-18 16:30N 38°12' W 009°42'611.5
2017-Sep-18 16:00N 38°07' W 009°40'611.3
2017-Sep-18 15:30N 38°01' W 009°39'611.2
2017-Sep-18 15:00N 37°56' W 009°37'510.8
2017-Sep-18 14:30N 37°50' W 009°36'611.0
2017-Sep-18 14:00N 37°45' W 009°34'611.1
2017-Sep-18 13:26N 37°39' W 009°32'3111.3
2017-Sep-18 10:44N 37°09' W 009°24'311.8
2017-Sep-18 10:28N 37°06' W 009°23'511.5
2017-Sep-18 10:00N 37°01' W 009°22'611.5
2017-Sep-18 09:30N 36°55' W 009°20'610.8
2017-Sep-18 08:56N 36°50' W 009°15'611.5
2017-Sep-18 08:25N 36°46' W 009°10'611.8
2017-Sep-18 07:56N 36°43' W 009°04'511.7
2017-Sep-18 07:30N 36°41' W 008°58'611.5
2017-Sep-18 07:00N 36°40' W 008°51'611.5
2017-Sep-18 06:30N 36°38' W 008°44'711.7
2017-Sep-18 05:56N 36°36' W 008°36'511.6
2017-Sep-18 05:30N 36°35' W 008°30'611.7
2017-Sep-18 05:00N 36°33' W 008°23'14911.3
2017-Sep-17 15:50N 36°00' W 005°23'2 7.6
2017-Sep-17 15:30N 36°01' W 005°20'23310.6
2017-Sep-16 17:31N 37°07' W 000°42'012.3
2017-Sep-16 17:29N 37°07' W 000°42'44811.6
2017-Sep-15 02:50N 38°00' E 008°40'612.7
2017-Sep-15 02:21N 38°00' E 008°48'1012.6
2017-Sep-15 01:31N 37°60' E 009°01'012.7
2017-Sep-15 01:29N 37°60' E 009°01'612.6
2017-Sep-15 00:59N 37°60' E 009°09'812.6
2017-Sep-15 00:23N 37°60' E 009°19'512.5
2017-Sep-14 23:57N 37°60' E 009°26'1112.6
2017-Sep-14 23:07N 38°00' E 009°39'212.5
2017-Sep-14 23:00N 38°00' E 009°41'712.2
2017-Sep-14 22:26N 38°00' E 009°50'512.2
2017-Sep-14 22:00N 38°00' E 009°57'712.1
2017-Sep-14 21:24N 38°01' E 010°06'2011.6
2017-Sep-14 19:38N 38°04' E 010°31'212.0
2017-Sep-14 19:29N 38°03' E 010°34'14012.0
2017-Sep-14 07:54N 37°12' E 013°18'511.8
2017-Sep-14 07:28N 37°10' E 013°23'511.7
2017-Sep-14 07:00N 37°07' E 013°29'611.7
2017-Sep-14 06:30N 37°04' E 013°35'611.5
2017-Sep-14 06:00N 37°01' E 013°42'611.3
2017-Sep-14 05:30N 36°58' E 013°48'611.4
2017-Sep-14 05:00N 36°56' E 013°54'611.5
2017-Sep-14 04:30N 36°53' E 014°00'811.9
2017-Sep-14 03:49N 36°49' E 014°09'2711.9
2017-Sep-14 01:31N 36°36' E 014°40'212.1
2017-Sep-14 01:23N 36°36' E 014°42'512.1
2017-Sep-14 01:00N 36°36' E 014°48'2512.1
2017-Sep-13 22:57N 36°35' E 015°18'52810.2
2017-Sep-11 19:04N 39°47' E 025°44'113.1
2017-Sep-11 18:59N 39°48' E 025°45'613.1
2017-Sep-11 18:30N 39°53' E 025°49'713.3
2017-Sep-11 18:00N 39°58' E 025°55'1012.8
2017-Sep-11 17:14N 40°01' E 026°07'152 6.4
2017-Sep-10 17:32N 41°17' E 029°01'0 3.8
2017-Sep-10 17:30N 41°17' E 029°01'3 5.4
2017-Sep-10 17:00N 41°20' E 029°00'0 0.7
2017-Sep-10 16:26N 41°20' E 028°60'0 1.1
2017-Sep-10 16:00N 41°21' E 028°60'1 1.0
2017-Sep-10 15:30N 41°21' E 028°59'0 0.6
2017-Sep-10 15:00N 41°21' E 028°60'1 0.5
2017-Sep-10 13:33N 41°20' E 029°00'  
Track history (hours):
 
Tides and Currents Weather Stations Pressure Air Temp Water Temp Dewpoint Dewpoint Depression Visibility Wind Speed Wind Dir Waves Ship Positions

Wisaforest

Last reported at 2017-Sep-19 00:06 UTC. Time now 2017-Sep-24 05:18 UTC.
Position N 39°34' W 009°51'.

Length 120 m; draft 7.4 m.

Type: Cargo ship. MMSI: 245096000.

Date/timePositionNaut miles runAvg speedWind from/ knotsBaromVisibWave heightAir tempDewpointWater temp
2017-Sep-19 00:06N 39°34' W 009°51'211.6
2017-Sep-18 23:54N 39°32' W 009°52'611.3
2017-Sep-18 23:21N 39°26' W 009°52'411.1
2017-Sep-18 22:59N 39°22' W 009°52'4 9.5
2017-Sep-18 22:30N 39°17' W 009°51'5 9.8
2017-Sep-18 22:00N 39°12' W 009°51'5 9.4
2017-Sep-18 21:30N 39°08' W 009°51'510.9
2017-Sep-18 21:00N 39°02' W 009°52'611.6
2017-Sep-18 20:30N 38°56' W 009°52'611.2
2017-Sep-18 20:00N 38°51' W 009°52'611.2
2017-Sep-18 19:30N 38°45' W 009°52'611.2
2017-Sep-18 19:00N 38°40' W 009°50'510.9
2017-Sep-18 18:30N 38°34' W 009°49'510.9
2017-Sep-18 18:00N 38°29' W 009°47'611.4
2017-Sep-18 17:30N 38°23' W 009°46'611.3
2017-Sep-18 17:00N 38°18' W 009°44'611.7
2017-Sep-18 16:30N 38°12' W 009°42'611.5
2017-Sep-18 16:00N 38°07' W 009°40'611.3
2017-Sep-18 15:30N 38°01' W 009°39'611.2
2017-Sep-18 15:00N 37°56' W 009°37'510.8
2017-Sep-18 14:30N 37°50' W 009°36'611.0
2017-Sep-18 14:00N 37°45' W 009°34'611.1
2017-Sep-18 13:26N 37°39' W 009°32'3111.3
2017-Sep-18 10:44N 37°09' W 009°24'311.8
2017-Sep-18 10:28N 37°06' W 009°23'511.5
2017-Sep-18 10:00N 37°01' W 009°22'611.5
2017-Sep-18 09:30N 36°55' W 009°20'610.8
2017-Sep-18 08:56N 36°50' W 009°15'611.5
2017-Sep-18 08:25N 36°46' W 009°10'611.8
2017-Sep-18 07:56N 36°43' W 009°04'511.7
2017-Sep-18 07:30N 36°41' W 008°58'611.5
2017-Sep-18 07:00N 36°40' W 008°51'611.5
2017-Sep-18 06:30N 36°38' W 008°44'711.7
2017-Sep-18 05:56N 36°36' W 008°36'511.6
2017-Sep-18 05:30N 36°35' W 008°30'611.7
2017-Sep-18 05:00N 36°33' W 008°23'14911.3
2017-Sep-17 15:50N 36°00' W 005°23'2 7.6
2017-Sep-17 15:30N 36°01' W 005°20'23310.6
2017-Sep-16 17:31N 37°07' W 000°42'012.3
2017-Sep-16 17:29N 37°07' W 000°42'44811.6
2017-Sep-15 02:50N 38°00' E 008°40'612.7
2017-Sep-15 02:21N 38°00' E 008°48'1012.6
2017-Sep-15 01:31N 37°60' E 009°01'012.7
2017-Sep-15 01:29N 37°60' E 009°01'612.6
2017-Sep-15 00:59N 37°60' E 009°09'812.6
2017-Sep-15 00:23N 37°60' E 009°19'512.5
2017-Sep-14 23:57N 37°60' E 009°26'1112.6
2017-Sep-14 23:07N 38°00' E 009°39'212.5
2017-Sep-14 23:00N 38°00' E 009°41'712.2
2017-Sep-14 22:26N 38°00' E 009°50'512.2
2017-Sep-14 22:00N 38°00' E 009°57'712.1
2017-Sep-14 21:24N 38°01' E 010°06'2011.6
2017-Sep-14 19:38N 38°04' E 010°31'212.0
2017-Sep-14 19:29N 38°03' E 010°34'14012.0
2017-Sep-14 07:54N 37°12' E 013°18'511.8
2017-Sep-14 07:28N 37°10' E 013°23'511.7
2017-Sep-14 07:00N 37°07' E 013°29'611.7
2017-Sep-14 06:30N 37°04' E 013°35'611.5
2017-Sep-14 06:00N 37°01' E 013°42'611.3
2017-Sep-14 05:30N 36°58' E 013°48'611.4
2017-Sep-14 05:00N 36°56' E 013°54'611.5
2017-Sep-14 04:30N 36°53' E 014°00'811.9
2017-Sep-14 03:49N 36°49' E 014°09'2711.9
2017-Sep-14 01:31N 36°36' E 014°40'212.1
2017-Sep-14 01:23N 36°36' E 014°42'512.1
2017-Sep-14 01:00N 36°36' E 014°48'2512.1
2017-Sep-13 22:57N 36°35' E 015°18'52810.2
2017-Sep-11 19:04N 39°47' E 025°44'113.1
2017-Sep-11 18:59N 39°48' E 025°45'613.1
2017-Sep-11 18:30N 39°53' E 025°49'713.3
2017-Sep-11 18:00N 39°58' E 025°55'1012.8
2017-Sep-11 17:14N 40°01' E 026°07'152 6.4
2017-Sep-10 17:32N 41°17' E 029°01'0 3.8
2017-Sep-10 17:30N 41°17' E 029°01'3 5.4
2017-Sep-10 17:00N 41°20' E 029°00'0 0.7
2017-Sep-10 16:26N 41°20' E 028°60'0 1.1
2017-Sep-10 16:00N 41°21' E 028°60'1 1.0
2017-Sep-10 15:30N 41°21' E 028°59'0 0.6
2017-Sep-10 15:00N 41°21' E 028°60'1 0.5
2017-Sep-10 13:33N 41°20' E 029°00'  

Dump ship's entire track history